Time;durP1;ratioP1;P1;durP2;ratioP2;P2;SDS_P1;SDS_P2;PMS_P1;PMS_P2;Temp;Humidity;BMP_temperature;BMP_pressure;BME280_temperature;BME280_humidity;BME280_pressure;Samples;Min_cycle;Max_cycle;Signal;HPM_P1;HPM_P2
2021/06/25 00:00:22;;;;;;;21.83;15.15;;;;;;;-145.50;100.00;65435.88;4891576;29;20143;-49
2021/06/25 00:03:09;;;;;;;24.65;15.75;;;;;;;-145.50;100.00;65435.88;4895150;29;20480;-49
2021/06/25 00:06:13;;;;;;;22.05;14.00;;;;;;;-145.50;100.00;65435.88;4881155;29;20079;-49
2021/06/25 00:08:42;;;;;;;23.05;13.95;;;;;;;-145.50;100.00;65435.88;4884768;29;20141;-49
2021/06/25 00:11:21;;;;;;;24.00;14.80;;;;;;;-145.50;100.00;65435.88;4880231;29;20139;-49
2021/06/25 00:14:32;;;;;;;20.95;13.95;;;;;;;-145.50;100.00;65435.88;4896428;29;20942;-49
2021/06/25 00:17:32;;;;;;;24.48;16.38;;;;;;;-145.50;100.00;65435.88;4885493;29;20084;-50
2021/06/25 00:20:06;;;;;;;28.55;16.08;;;;;;;-145.50;100.00;65435.88;4892242;29;20962;-49
2021/06/25 00:22:50;;;;;;;28.70;16.08;;;;;;;-145.50;100.00;65435.88;4881038;29;20508;-48
2021/06/25 00:25:36;;;;;;;27.95;15.73;;;;;;;-145.50;100.00;65435.88;4889072;29;20135;-48
2021/06/25 00:28:54;;;;;;;25.27;16.15;;;;;;;-145.50;100.00;65435.88;4882106;29;20088;-48
2021/06/25 00:31:25;;;;;;;25.05;16.55;;;;;;;-145.50;100.00;65435.88;4881232;29;20088;-50
2021/06/25 00:34:42;;;;;;;30.50;16.60;;;;;;;-145.50;100.00;65435.88;4884782;29;20509;-48
2021/06/25 00:38:07;;;;;;;34.43;16.87;;;;;;;-145.50;100.00;65435.88;4892107;29;20095;-49
2021/06/25 00:40:58;;;;;;;27.15;16.42;;;;;;;-145.50;100.00;65435.88;4890795;29;20151;-48
2021/06/25 00:44:04;;;;;;;26.08;15.63;;;;;;;-145.50;100.00;65435.88;4885651;29;20628;-49
2021/06/25 00:47:26;;;;;;;25.73;15.88;;;;;;;-145.50;100.00;65435.88;4883149;29;20564;-49
2021/06/25 00:50:43;;;;;;;24.85;16.75;;;;;;;-145.50;100.00;65435.88;4889280;29;20159;-49
2021/06/25 00:54:09;;;;;;;27.27;17.05;;;;;;;-145.50;100.00;65435.88;4885521;29;20088;-51
2021/06/25 00:57:19;;;;;;;30.33;17.40;;;;;;;-145.50;100.00;65435.88;4882471;29;20159;-49
2021/06/25 01:00:26;;;;;;;25.80;17.13;;;;;;;-145.50;100.00;65435.88;4890230;29;20578;-48
2021/06/25 01:03:52;;;;;;;30.02;17.75;;;;;;;-145.50;100.00;65435.88;4883167;29;20147;-48
2021/06/25 01:07:17;;;;;;;26.50;17.17;;;;;;;-145.50;100.00;65435.88;4882437;29;20136;-48
2021/06/25 01:10:42;;;;;;;27.13;16.75;;;;;;;-145.50;100.00;65435.88;4881153;29;20099;-47
2021/06/25 01:14:07;;;;;;;33.22;18.40;;;;;;;-145.50;100.00;65435.88;4883320;29;20091;-47
2021/06/25 01:17:34;;;;;;;42.30;20.38;;;;;;;-145.50;100.00;65435.88;4890487;29;20907;-47
2021/06/25 01:21:03;;;;;;;40.60;19.65;;;;;;;-145.50;100.00;65435.88;4874352;29;20067;-50
2021/06/25 01:24:28;;;;;;;39.15;20.73;;;;;;;-145.50;100.00;65435.88;4891722;29;20496;-49
2021/06/25 01:27:54;;;;;;;39.45;21.35;;;;;;;-145.50;100.00;65435.88;4887747;29;20052;-49
2021/06/25 01:31:21;;;;;;;40.50;21.73;;;;;;;-145.50;100.00;65435.88;4873694;29;20091;-49
2021/06/25 01:34:47;;;;;;;38.92;20.63;;;;;;;-145.50;100.00;65435.88;4878667;29;20048;-47
2021/06/25 01:38:12;;;;;;;44.42;22.73;;;;;;;-145.50;100.00;65435.88;4884944;29;20574;-49
2021/06/25 01:41:38;;;;;;;39.92;21.55;;;;;;;-145.50;100.00;65435.88;4885589;29;20564;-48
2021/06/25 01:45:06;;;;;;;44.03;22.75;;;;;;;-145.50;100.00;65435.88;4886844;29;20136;-50
2021/06/25 01:48:08;;;;;;;43.75;22.05;;;;;;;-145.50;100.00;65435.88;4878300;29;20057;-48
2021/06/25 01:51:34;;;;;;;44.80;22.45;;;;;;;-145.50;100.00;65435.88;4887355;29;20091;-48
2021/06/25 01:54:59;;;;;;;44.58;22.83;;;;;;;-145.50;100.00;65435.88;4895636;29;20091;-49
2021/06/25 01:57:47;;;;;;;46.00;23.85;;;;;;;-145.50;100.00;65435.88;4899291;29;20187;-48
2021/06/25 02:01:15;;;;;;;;;;;;;;;-145.50;100.00;65435.88;4888599;29;20056;-49
2021/06/25 02:04:41;;;;;;;46.17;22.38;;;;;;;-145.50;100.00;65435.88;4880188;29;20337;-49
2021/06/25 02:07:55;;;;;;;56.35;23.02;;;;;;;-145.50;100.00;65435.88;4889748;29;20148;-49
2021/06/25 02:11:22;;;;;;;49.65;23.52;;;;;;;-145.50;100.00;65435.88;4881800;29;20936;-49
2021/06/25 02:14:47;;;;;;;50.47;24.02;;;;;;;-145.50;100.00;65435.88;4893077;29;20151;-49
2021/06/25 02:18:12;;;;;;;50.15;23.58;;;;;;;-145.50;100.00;65435.88;4863331;29;20143;-48
2021/06/25 02:21:37;;;;;;;51.13;25.15;;;;;;;-145.50;100.00;65435.88;4884986;29;20159;-48
2021/06/25 02:25:07;;;;;;;55.30;25.15;;;;;;;-145.50;100.00;65435.88;4889867;29;20471;-48
2021/06/25 02:28:11;;;;;;;51.65;24.33;;;;;;;-145.50;100.00;65435.88;4868128;29;20148;-48
2021/06/25 02:31:36;;;;;;;59.92;26.40;;;;;;;-145.50;100.00;65435.88;4896902;29;20091;-46
2021/06/25 02:35:01;;;;;;;53.53;24.67;;;;;;;-145.50;100.00;65435.88;4870678;29;20172;-47
2021/06/25 02:38:26;;;;;;;55.53;24.42;;;;;;;-145.50;100.00;65435.88;4877574;29;20140;-50
2021/06/25 02:41:51;;;;;;;49.60;23.85;;;;;;;-145.50;100.00;65435.88;4888694;29;20151;-51
2021/06/25 02:45:16;;;;;;;54.25;23.75;;;;;;;-145.50;100.00;65435.88;4879341;29;20473;-47
2021/06/25 02:48:16;;;;;;;57.25;23.30;;;;;;;-145.50;100.00;65435.88;4888465;29;20099;-50
2021/06/25 02:51:38;;;;;;;50.22;22.88;;;;;;;-145.50;100.00;65435.88;4875601;29;20115;-48
2021/06/25 02:54:54;;;;;;;52.50;23.42;;;;;;;-145.50;100.00;65435.88;4884755;29;20075;-49
2021/06/25 02:58:20;;;;;;;47.63;23.75;;;;;;;-145.50;100.00;65435.88;4886502;29;20143;-47
2021/06/25 03:01:46;;;;;;;51.05;23.13;;;;;;;-145.50;100.00;65435.88;4881891;29;20470;-48
2021/06/25 03:05:12;;;;;;;48.55;22.90;;;;;;;-145.50;100.00;65435.88;4889779;29;20690;-48
2021/06/25 03:08:38;;;;;;;48.17;22.52;;;;;;;-145.50;100.00;65435.88;4883515;29;20518;-48
2021/06/25 03:12:04;;;;;;;47.17;22.10;;;;;;;-145.50;100.00;65435.88;4880061;29;20080;-48
2021/06/25 03:15:29;;;;;;;51.17;22.60;;;;;;;-145.50;100.00;65435.88;4879153;29;20143;-48
2021/06/25 03:18:54;;;;;;;47.45;22.80;;;;;;;-145.50;100.00;65435.88;4880253;29;20056;-48
2021/06/25 03:22:19;;;;;;;48.03;23.23;;;;;;;-145.50;100.00;65435.88;4881434;29;20116;-48
2021/06/25 03:25:44;;;;;;;47.95;22.98;;;;;;;-145.50;100.00;65435.88;4872250;29;20143;-49
2021/06/25 03:29:09;;;;;;;52.05;22.27;;;;;;;-145.50;100.00;65435.88;4875029;29;20104;-48
2021/06/25 03:32:34;;;;;;;66.68;26.15;;;;;;;-145.50;100.00;65435.88;4889779;29;20097;-47
2021/06/25 03:36:00;;;;;;;48.85;22.95;;;;;;;-145.50;100.00;65435.88;4880803;29;20057;-48
2021/06/25 03:39:25;;;;;;;50.97;21.95;;;;;;;-145.50;100.00;65435.88;4883300;29;20081;-47
2021/06/25 03:42:50;;;;;;;52.10;22.90;;;;;;;-145.50;100.00;65435.88;4885638;29;20079;-48
2021/06/25 03:46:17;;;;;;;49.22;22.52;;;;;;;-145.50;100.00;65435.88;4893085;29;20118;-48
2021/06/25 03:49:42;;;;;;;49.40;23.65;;;;;;;-145.50;100.00;65435.88;4888426;29;20057;-48
2021/06/25 03:53:07;;;;;;;46.55;22.75;;;;;;;-145.50;100.00;65435.88;4880182;29;20135;-49
2021/06/25 03:56:32;;;;;;;48.40;23.13;;;;;;;-145.50;100.00;65435.88;4888485;29;20084;-47
2021/06/25 03:59:57;;;;;;;48.00;22.45;;;;;;;-145.50;100.00;65435.88;4885589;29;20051;-47
2021/06/25 04:03:22;;;;;;;50.22;22.85;;;;;;;-145.50;100.00;65435.88;4884817;29;20142;-51
2021/06/25 04:06:47;;;;;;;51.67;23.63;;;;;;;-145.50;100.00;65435.88;4889185;29;20888;-49
2021/06/25 04:10:12;;;;;;;46.83;22.02;;;;;;;-145.50;100.00;65435.88;4876236;29;20140;-48
2021/06/25 04:13:38;;;;;;;50.33;23.35;;;;;;;-145.50;100.00;65435.88;4891596;29;20142;-48
2021/06/25 04:17:03;;;;;;;56.15;24.38;;;;;;;-145.50;100.00;65435.88;4886837;29;20143;-48
2021/06/25 04:20:28;;;;;;;56.95;25.35;;;;;;;-145.50;100.00;65435.88;4885701;29;20144;-47
2021/06/25 04:23:53;;;;;;;62.50;27.10;;;;;;;-145.50;100.00;65435.88;4884427;29;20060;-49
2021/06/25 04:27:18;;;;;;;61.78;28.00;;;;;;;-145.50;100.00;65435.88;4879760;29;20159;-48
2021/06/25 04:30:44;;;;;;;70.18;30.33;;;;;;;-145.50;100.00;65435.88;4881686;29;20061;-48
2021/06/25 04:34:09;;;;;;;67.60;28.15;;;;;;;-145.50;100.00;65435.88;4883374;29;20094;-49
2021/06/25 04:37:34;;;;;;;71.78;29.85;;;;;;;-145.50;100.00;65435.88;4877031;29;20087;-48
2021/06/25 04:40:49;;;;;;;74.50;29.70;;;;;;;-145.50;100.00;65435.88;4888588;29;20227;-49
2021/06/25 04:44:17;;;;;;;66.80;28.27;;;;;;;-145.50;100.00;65435.88;4881968;29;20147;-48
2021/06/25 04:47:42;;;;;;;67.38;28.65;;;;;;;-145.50;100.00;65435.88;4883264;29;20112;-49
2021/06/25 04:51:08;;;;;;;76.88;31.13;;;;;;;-145.50;100.00;65435.88;4881367;29;20557;-49
2021/06/25 04:53:34;;;;;;;70.72;30.70;;;;;;;-145.50;100.00;65435.88;4882426;29;20192;-49
2021/06/25 04:56:58;;;;;;;71.43;30.27;;;;;;;-145.50;100.00;65435.88;4888184;29;20556;-48
2021/06/25 04:59:45;;;;;;;71.18;31.73;;;;;;;-145.50;100.00;65435.88;4886132;29;20138;-49
2021/06/25 05:02:49;;;;;;;74.97;31.35;;;;;;;-145.50;100.00;65435.88;4876935;29;20048;-48
2021/06/25 05:05:40;;;;;;;86.03;30.35;;;;;;;-145.50;100.00;65435.88;4870357;29;20495;-48
2021/06/25 05:08:07;;;;;;;73.30;30.50;;;;;;;-145.50;100.00;65435.88;4876456;29;20164;-49
2021/06/25 05:10:48;;;;;;;71.28;30.48;;;;;;;-145.50;100.00;65435.88;4869800;29;20057;-49
2021/06/25 05:13:15;;;;;;;77.45;31.08;;;;;;;-145.50;100.00;65435.88;4884907;29;20176;-49
2021/06/25 05:15:42;;;;;;;69.45;31.08;;;;;;;-145.50;100.00;65435.88;4881181;29;20649;-49
2021/06/25 05:19:05;;;;;;;74.97;31.05;;;;;;;-145.50;100.00;65435.88;4874332;29;20108;-49
2021/06/25 05:21:32;;;;;;;68.82;30.73;;;;;;;-145.50;100.00;65435.88;4880209;29;20091;-48
2021/06/25 05:23:59;;;;;;;74.00;31.67;;;;;;;-145.50;100.00;65435.88;4876034;29;20253;-48
2021/06/25 05:26:25;;;;;;;74.88;30.45;;;;;;;-145.50;100.00;65435.88;4889070;29;20135;-49
2021/06/25 05:28:52;;;;;;;70.03;29.83;;;;;;;-145.50;100.00;65435.88;4880152;29;20143;-49
2021/06/25 05:31:18;;;;;;;70.13;29.25;;;;;;;-145.50;100.00;65435.88;4886519;29;20151;-48
2021/06/25 05:33:45;;;;;;;71.38;29.83;;;;;;;-145.50;100.00;65435.88;4869606;29;20191;-49
2021/06/25 05:36:11;;;;;;;73.82;30.63;;;;;;;-145.50;100.00;65435.88;4878077;29;20080;-49
2021/06/25 05:38:38;;;;;;;72.63;31.15;;;;;;;-145.50;100.00;65435.88;4874700;29;20136;-47
2021/06/25 05:41:05;;;;;;;65.80;29.77;;;;;;;-145.50;100.00;65435.88;4870042;29;20148;-49
2021/06/25 05:43:31;;;;;;;70.90;30.08;;;;;;;-145.50;100.00;65435.88;4871559;29;20163;-49
2021/06/25 05:45:59;;;;;;;68.10;28.10;;;;;;;-145.50;100.00;65435.88;4878863;29;20143;-49
2021/06/25 05:48:27;;;;;;;63.72;27.38;;;;;;;-145.50;100.00;65435.88;4886781;29;20056;-49
2021/06/25 05:50:53;;;;;;;58.80;25.15;;;;;;;-145.50;100.00;65435.88;4884978;29;20485;-50
2021/06/25 05:53:20;;;;;;;54.63;25.75;;;;;;;-145.50;100.00;65435.88;4882130;29;20135;-49
2021/06/25 05:55:46;;;;;;;62.20;27.75;;;;;;;-145.50;100.00;65435.88;4886042;29;20493;-50
2021/06/25 05:58:13;;;;;;;63.40;27.80;;;;;;;-145.50;100.00;65435.88;4876063;29;20060;-49
2021/06/25 06:00:39;;;;;;;59.08;25.52;;;;;;;-145.50;100.00;65435.88;4876902;29;20883;-47
2021/06/25 06:03:06;;;;;;;63.65;26.73;;;;;;;-145.50;100.00;65435.88;4874705;29;20540;-47
2021/06/25 06:05:35;;;;;;;51.63;24.85;;;;;;;-145.50;100.00;65435.88;4881378;29;20057;-49
2021/06/25 06:08:03;;;;;;;59.80;24.92;;;;;;;-145.50;100.00;65435.88;4878892;29;20113;-52
2021/06/25 06:10:29;;;;;;;50.22;24.52;;;;;;;-145.50;100.00;65435.88;4878937;29;20143;-47
2021/06/25 06:12:56;;;;;;;49.63;22.70;;;;;;;-145.50;100.00;65435.88;4876186;29;20067;-47
2021/06/25 06:15:23;;;;;;;52.80;23.02;;;;;;;-145.50;100.00;65435.88;4880268;29;20071;-48
2021/06/25 06:17:49;;;;;;;46.38;23.23;;;;;;;-145.50;100.00;65435.88;4889612;29;20140;-48
2021/06/25 06:20:19;;;;;;;48.25;22.90;;;;;;;-145.50;100.00;65435.88;4884281;29;20854;-48
2021/06/25 06:36:30;;;;;;;42.00;21.15;;;;;;;-145.50;100.00;65435.88;4884285;29;20576;-49
2021/06/25 06:39:01;;;;;;;40.83;22.00;;;;;;;-145.50;100.00;65435.88;4884808;29;20135;-50
2021/06/25 06:41:28;;;;;;;45.70;22.83;;;;;;;-145.50;100.00;65435.88;4880420;29;20056;-49
2021/06/25 06:43:56;;;;;;;46.45;23.05;;;;;;;-145.50;100.00;65435.88;4889116;29;20152;-50
2021/06/25 06:46:23;;;;;;;45.30;24.13;;;;;;;-145.50;100.00;65435.88;4890372;29;20092;-49
2021/06/25 06:48:51;;;;;;;60.93;29.17;;;;;;;-145.50;100.00;65435.88;4883058;29;20056;-48
2021/06/25 06:51:18;;;;;;;49.95;25.88;;;;;;;-145.50;100.00;65435.88;4890184;29;20283;-50
2021/06/25 06:53:44;;;;;;;47.15;24.38;;;;;;;-145.50;100.00;65435.88;4876574;29;20156;-48
2021/06/25 06:56:13;;;;;;;58.47;27.40;;;;;;;-145.50;100.00;65435.88;4874128;29;20171;-48
2021/06/25 06:58:40;;;;;;;54.42;27.42;;;;;;;-145.50;100.00;65435.88;4883436;29;20056;-48
2021/06/25 07:01:07;;;;;;;49.83;25.63;;;;;;;-145.50;100.00;65435.88;4890172;29;20145;-47
2021/06/25 07:03:54;;;;;;;52.63;27.27;;;;;;;-145.50;100.00;65435.88;4883854;29;20052;-48
2021/06/25 07:06:21;;;;;;;52.17;26.55;;;;;;;-145.50;100.00;65435.88;4879527;29;20120;-49
2021/06/25 07:08:47;;;;;;;59.85;28.63;;;;;;;-145.50;100.00;65435.88;4874765;29;20048;-49
2021/06/25 07:11:15;;;;;;;59.10;28.10;;;;;;;-145.50;100.00;65435.88;4871875;29;20083;-48
2021/06/25 07:13:42;;;;;;;60.30;29.90;;;;;;;-145.50;100.00;65435.88;4877575;29;20092;-48
2021/06/25 07:16:12;;;;;;;57.92;28.52;;;;;;;-145.50;100.00;65435.88;4869336;29;20470;-49
2021/06/25 07:18:38;;;;;;;56.10;28.08;;;;;;;-145.50;100.00;65435.88;4875216;29;20048;-48
2021/06/25 07:21:05;;;;;;;67.32;30.75;;;;;;;-145.50;100.00;65435.88;4869547;29;20358;-48
2021/06/25 07:23:31;;;;;;;64.75;28.13;;;;;;;-145.50;100.00;65435.88;4874639;29;20091;-48
2021/06/25 07:25:58;;;;;;;65.20;31.65;;;;;;;-145.50;100.00;65435.88;4875131;29;20148;-48
2021/06/25 07:28:24;;;;;;;64.78;32.28;;;;;;;-145.50;100.00;65435.88;4869426;29;20091;-48
2021/06/25 07:30:51;;;;;;;63.13;28.90;;;;;;;-145.50;100.00;65435.88;4879497;29;20148;-48
2021/06/25 07:33:17;;;;;;;66.47;32.50;;;;;;;-145.50;100.00;65435.88;4870408;29;20139;-48
2021/06/25 07:35:44;;;;;;;64.82;31.67;;;;;;;-145.50;100.00;65435.88;4875523;29;20148;-47
2021/06/25 07:38:10;;;;;;;65.60;30.58;;;;;;;-145.50;100.00;65435.88;4871531;29;20084;-49
2021/06/25 07:40:37;;;;;;;65.72;31.58;;;;;;;-145.50;100.00;65435.88;4877233;29;20145;-49
2021/06/25 07:43:03;;;;;;;70.72;31.33;;;;;;;-145.50;100.00;65435.88;4882171;29;20695;-47
2021/06/25 07:45:30;;;;;;;63.13;31.55;;;;;;;-145.50;100.00;65435.88;4886342;29;20098;-48
2021/06/25 07:47:56;;;;;;;75.03;32.70;;;;;;;-145.50;100.00;65435.88;4889224;29;20147;-49
2021/06/25 07:50:24;;;;;;;66.45;31.65;;;;;;;-145.50;100.00;65435.88;4886370;29;20163;-49
2021/06/25 07:52:51;;;;;;;66.10;31.23;;;;;;;-145.50;100.00;65435.88;4887482;29;20095;-48
2021/06/25 07:55:17;;;;;;;69.47;31.80;;;;;;;-145.50;100.00;65435.88;4889997;29;20053;-47
2021/06/25 07:57:44;;;;;;;78.47;33.80;;;;;;;-145.50;100.00;65435.88;4889473;29;20159;-49
2021/06/25 08:00:12;;;;;;;66.88;32.92;;;;;;;-145.50;100.00;65435.88;4887823;29;20056;-50
2021/06/25 08:02:40;;;;;;;68.65;33.38;;;;;;;-145.50;100.00;65435.88;4875514;29;20060;-49
2021/06/25 08:05:07;;;;;;;73.40;35.55;;;;;;;-145.50;100.00;65435.88;4885995;29;20067;-50
2021/06/25 08:07:34;;;;;;;70.07;34.13;;;;;;;-145.50;100.00;65435.88;4879648;29;20132;-49
2021/06/25 08:10:00;;;;;;;73.63;36.03;;;;;;;-145.50;100.00;65435.88;4892748;29;20088;-52
2021/06/25 08:12:27;;;;;;;77.97;35.88;;;;;;;-145.50;100.00;65435.88;4885899;29;20083;-49
2021/06/25 08:14:56;;;;;;;77.53;35.25;;;;;;;-145.50;100.00;65435.88;4888985;29;20075;-48
2021/06/25 08:17:24;;;;;;;82.00;37.22;;;;;;;-145.50;100.00;65435.88;4880946;29;21233;-49
2021/06/25 08:19:51;;;;;;;83.50;38.17;;;;;;;-145.50;100.00;65435.88;4889526;29;20575;-48
2021/06/25 08:22:18;;;;;;;81.00;38.75;;;;;;;-145.50;100.00;65435.88;4891960;29;20056;-49
2021/06/25 08:24:44;;;;;;;92.13;39.72;;;;;;;-145.50;100.00;65435.88;4886861;29;20494;-52
2021/06/25 08:27:11;;;;;;;83.85;39.42;;;;;;;-145.50;100.00;65435.88;4875170;29;20092;-50
2021/06/25 08:29:38;;;;;;;91.25;41.30;;;;;;;-145.50;100.00;65435.88;4882860;29;20210;-48
2021/06/25 08:32:05;;;;;;;85.65;41.97;;;;;;;-145.50;100.00;65435.88;4887919;29;20487;-48
2021/06/25 08:34:32;;;;;;;88.35;41.28;;;;;;;-145.50;100.00;65435.88;4888308;29;20052;-48
2021/06/25 08:36:58;;;;;;;92.80;40.63;;;;;;;-145.50;100.00;65435.88;4884783;29;20522;-49
2021/06/25 08:39:26;;;;;;;84.22;40.78;;;;;;;-145.50;100.00;65435.88;4892286;29;20562;-52
2021/06/25 08:41:53;;;;;;;90.10;39.97;;;;;;;-145.50;100.00;65435.88;4885349;29;20056;-49
2021/06/25 08:44:20;;;;;;;101.18;41.22;;;;;;;-145.50;100.00;65435.88;4870704;29;20068;-49
2021/06/25 08:46:48;;;;;;;94.43;43.03;;;;;;;-145.50;100.00;65435.88;4873051;29;20394;-49
2021/06/25 08:49:19;;;;;;;85.03;38.70;;;;;;;-145.50;100.00;65435.88;4884982;29;20052;-50
2021/06/25 08:51:48;;;;;;;89.93;41.40;;;;;;;-145.50;100.00;65435.88;4875692;29;20088;-50
2021/06/25 08:54:15;;;;;;;89.75;40.58;;;;;;;-145.50;100.00;65435.88;4880965;29;20098;-50
2021/06/25 08:56:42;;;;;;;82.70;40.08;;;;;;;-145.50;100.00;65435.88;4888374;29;20139;-50
2021/06/25 08:59:09;;;;;;;90.20;41.63;;;;;;;-145.50;100.00;65435.88;4879997;29;20135;-50
2021/06/25 09:01:37;;;;;;;90.20;39.75;;;;;;;-145.50;100.00;65435.88;4889492;29;20143;-48
2021/06/25 09:04:04;;;;;;;89.57;39.80;;;;;;;-145.50;100.00;65435.88;4885826;29;20063;-50
2021/06/25 09:06:32;;;;;;;85.45;39.42;;;;;;;-145.50;100.00;65435.88;4882940;29;20087;-48
2021/06/25 09:09:13;;;;;;;92.78;40.63;;;;;;;-145.50;100.00;65435.88;4879584;29;20048;-48
2021/06/25 09:11:41;;;;;;;89.72;40.30;;;;;;;-145.50;100.00;65435.88;4884630;29;20170;-49
2021/06/25 09:14:07;;;;;;;82.30;38.85;;;;;;;-145.50;100.00;65435.88;4888417;29;20083;-48
2021/06/25 09:16:36;;;;;;;89.65;39.67;;;;;;;-145.50;100.00;65435.88;4887777;29;20092;-48
2021/06/25 09:19:17;;;;;;;82.57;39.15;;;;;;;-145.50;100.00;65435.88;4874193;29;20130;-48
2021/06/25 09:21:59;;;;;;;82.18;37.97;;;;;;;-145.50;100.00;65435.88;4880431;29;20163;-50
2021/06/25 09:24:27;;;;;;;88.25;39.42;;;;;;;-145.50;100.00;65435.88;4863683;29;20151;-48
2021/06/25 09:27:05;;;;;;;83.13;40.70;;;;;;;-145.50;100.00;65435.88;4866811;29;20063;-48
2021/06/25 09:29:38;;;;;;;89.18;38.80;;;;;;;-145.50;100.00;65435.88;4887558;29;20131;-48
2021/06/25 09:32:08;;;;;;;80.90;38.72;;;;;;;-145.50;100.00;65435.88;4883936;29;20168;-51
2021/06/25 09:34:52;;;;;;;86.07;37.05;;;;;;;-145.50;100.00;65435.88;4889392;29;20123;-48
2021/06/25 09:37:20;;;;;;;94.60;39.15;;;;;;;-145.50;100.00;65435.88;4883491;29;20045;-48
2021/06/25 09:40:02;;;;;;;88.88;38.15;;;;;;;-145.50;100.00;65435.88;4885772;29;20056;-49
2021/06/25 09:42:29;;;;;;;88.03;37.90;;;;;;;-145.50;100.00;65435.88;4882019;29;20071;-47
2021/06/25 09:45:10;;;;;;;79.63;36.30;;;;;;;-145.50;100.00;65435.88;4890308;29;20099;-48
2021/06/25 09:47:40;;;;;;;80.72;38.83;;;;;;;-145.50;100.00;65435.88;4889576;29;20099;-49
2021/06/25 09:50:11;;;;;;;72.53;33.55;;;;;;;-145.50;100.00;65435.88;4883199;29;20121;-47
2021/06/25 09:52:50;;;;;;;83.90;35.08;;;;;;;-145.50;100.00;65435.88;4885855;29;20092;-49
2021/06/25 09:55:48;;;;;;;86.00;34.65;;;;;;;-145.50;100.00;65435.88;4881001;29;20484;-50
2021/06/25 10:03:56;;;;;;;76.93;34.88;;;;;;;-145.50;100.00;65435.88;4887925;29;20109;-47
2021/06/25 10:06:30;;;;;;;68.93;32.92;;;;;;;-145.50;100.00;65435.88;4881816;29;20057;-49
2021/06/25 10:08:57;;;;;;;64.47;33.80;;;;;;;-145.50;100.00;65435.88;4884481;29;20131;-49
2021/06/25 10:11:26;;;;;;;69.50;34.43;;;;;;;-145.50;100.00;65435.88;4882952;29;20197;-49
2021/06/25 10:13:58;;;;;;;66.15;32.47;;;;;;;-145.50;100.00;65435.88;4886556;29;20362;-48
2021/06/25 10:16:26;;;;;;;64.20;32.50;;;;;;;-145.50;100.00;65435.88;4876069;29;20084;-48
2021/06/25 10:18:54;;;;;;;62.28;31.92;;;;;;;-145.50;100.00;65435.88;4894466;29;20049;-48
2021/06/25 10:21:31;;;;;;;;;;;;;;;-145.50;100.00;65435.88;4883194;29;20449;-49
2021/06/25 10:24:00;;;;;;;76.15;34.15;;;;;;;-145.50;100.00;65435.88;4887168;29;19975;-48
2021/06/25 10:26:29;;;;;;;66.80;33.92;;;;;;;-145.50;100.00;65435.88;4897913;29;20074;-49
2021/06/25 10:28:56;;;;;;;72.68;33.75;;;;;;;-145.50;100.00;65435.88;4888211;29;20131;-48
2021/06/25 10:31:24;;;;;;;69.78;35.20;;;;;;;-145.50;100.00;65435.88;4873277;29;20080;-48
2021/06/25 10:33:52;;;;;;;;;;;;;;;-145.50;100.00;65435.88;4867912;29;20091;-48
2021/06/25 10:36:22;;;;;;;71.00;35.80;;;;;;;-145.50;100.00;65435.88;4881872;29;20303;-48
2021/06/25 10:38:50;;;;;;;72.10;35.20;;;;;;;-145.50;100.00;65435.88;4892984;29;20056;-49
2021/06/25 10:41:18;;;;;;;69.07;36.60;;;;;;;-145.50;100.00;65435.88;4884317;29;20168;-47
2021/06/25 10:43:55;;;;;;;76.43;35.60;;;;;;;-145.50;100.00;65435.88;4889272;29;20922;-47
2021/06/25 10:46:24;;;;;;;74.93;37.53;;;;;;;-145.50;100.00;65435.88;4882803;29;20151;-50
2021/06/25 10:48:56;;;;;;;66.05;34.38;;;;;;;-145.50;100.00;65435.88;4884501;29;20147;-48
2021/06/25 10:51:28;;;;;;;62.13;32.53;;;;;;;-145.50;100.00;65435.88;4882190;29;20143;-49
2021/06/25 10:54:10;;;;;;;65.60;33.13;;;;;;;-145.50;100.00;65435.88;4889430;29;20049;-49
2021/06/25 10:56:39;;;;;;;63.78;33.53;;;;;;;-145.50;100.00;65435.88;4878032;29;20052;-48
2021/06/25 10:59:29;;;;;;;70.45;34.15;;;;;;;-145.50;100.00;65435.88;4894271;29;20127;-48
2021/06/25 11:01:57;;;;;;;71.13;34.17;;;;;;;-145.50;100.00;65435.88;4861803;29;20056;-47
2021/06/25 11:04:41;;;;;;;75.43;34.88;;;;;;;-145.50;100.00;65435.88;4889414;29;20636;-49
2021/06/25 11:07:14;;;;;;;69.13;33.97;;;;;;;-145.50;100.00;65435.88;4893608;29;20481;-47
2021/06/25 11:09:51;;;;;;;63.00;33.08;;;;;;;-145.50;100.00;65435.88;4870857;29;20659;-48
2021/06/25 11:12:31;;;;;;;71.90;34.78;;;;;;;-145.50;100.00;65435.88;4893027;29;20143;-48
2021/06/25 11:15:03;;;;;;;69.78;34.70;;;;;;;-145.50;100.00;65435.88;4885389;29;20088;-48
2021/06/25 11:17:53;;;;;;;69.63;32.67;;;;;;;-145.50;100.00;65435.88;4888117;29;20149;-48
2021/06/25 11:20:54;;;;;;;76.25;36.70;;;;;;;-145.50;100.00;65435.88;4884115;29;20192;-49
2021/06/25 11:23:26;;;;;;;74.70;36.17;;;;;;;-145.50;100.00;65435.88;4881167;29;20084;-48
2021/06/25 11:26:01;;;;;;;72.05;36.72;;;;;;;-145.50;100.00;65435.88;4881466;29;20059;-48
2021/06/25 11:28:31;;;;;;;70.80;36.55;;;;;;;-145.50;100.00;65435.88;4891825;29;20074;-49
2021/06/25 11:31:00;;;;;;;75.00;37.20;;;;;;;-145.50;100.00;65435.88;4881863;29;20500;-48
2021/06/25 11:36:20;;;;;;;72.05;37.45;;;;;;;-145.50;100.00;65435.88;4879807;29;20593;-49
2021/06/25 11:38:56;;;;;;;72.40;37.40;;;;;;;-145.50;100.00;65435.88;4879153;29;20058;-48
2021/06/25 11:41:36;;;;;;;67.28;37.58;;;;;;;-145.50;100.00;65435.88;4880787;29;20143;-49
2021/06/25 11:44:15;;;;;;;70.15;37.55;;;;;;;-145.50;100.00;65435.88;4877937;29;20063;-48
2021/06/25 11:46:50;;;;;;;77.30;39.17;;;;;;;-145.50;100.00;65435.88;4881186;29;20417;-49
2021/06/25 11:49:18;;;;;;;72.10;36.00;;;;;;;-145.50;100.00;65435.88;4872088;29;20143;-50
2021/06/25 11:51:45;;;;;;;69.05;36.53;;;;;;;-145.50;100.00;65435.88;4879046;29;20147;-48
2021/06/25 11:54:17;;;;;;;67.75;36.05;;;;;;;-145.50;100.00;65435.88;4871204;29;20164;-49
2021/06/25 11:56:45;;;;;;;63.70;34.67;;;;;;;-145.50;100.00;65435.88;4875709;29;20156;-49
2021/06/25 11:59:13;;;;;;;65.70;35.33;;;;;;;-145.50;100.00;65435.88;4848375;29;20175;-48
2021/06/25 12:01:53;;;;;;;65.68;33.55;;;;;;;-145.50;100.00;65435.88;4875797;29;20052;-48
2021/06/25 12:04:36;;;;;;;70.57;34.90;;;;;;;-145.50;100.00;65435.88;4867986;29;20053;-50
2021/06/25 12:07:05;;;;;;;60.22;31.13;;;;;;;-145.50;100.00;65435.88;4877188;29;20135;-48
2021/06/25 12:09:41;;;;;;;55.35;28.00;;;;;;;-145.50;100.00;65435.88;4875674;29;20052;-49
2021/06/25 12:12:10;;;;;;;55.45;27.88;;;;;;;-145.50;100.00;65435.88;4881774;29;20143;-48
2021/06/25 12:14:52;;;;;;;49.83;25.80;;;;;;;-145.50;100.00;65435.88;4891003;29;20535;-48
2021/06/25 12:17:20;;;;;;;51.47;26.88;;;;;;;-145.50;100.00;65435.88;4885238;29;20140;-49
2021/06/25 12:19:59;;;;;;;54.22;24.90;;;;;;;-145.50;100.00;65435.88;4892901;29;20468;-50
2021/06/25 12:22:26;;;;;;;50.55;26.38;;;;;;;-145.50;100.00;65435.88;4879802;29;20084;-48
2021/06/25 12:24:55;;;;;;;53.78;25.80;;;;;;;-145.50;100.00;65435.88;4886931;29;20084;-48
2021/06/25 12:27:36;;;;;;;47.03;25.35;;;;;;;-145.50;100.00;65435.88;4883381;29;20485;-49
2021/06/25 12:30:08;;;;;;;47.15;23.88;;;;;;;-145.50;100.00;65435.88;4891989;29;20091;-50
2021/06/25 12:32:34;;;;;;;51.30;24.63;;;;;;;-145.50;100.00;65435.88;4885874;29;20494;-51
2021/06/25 12:35:01;;;;;;;52.67;24.70;;;;;;;-145.50;100.00;65435.88;4886629;29;20139;-50
2021/06/25 12:37:45;;;;;;;46.70;23.27;;;;;;;-145.50;100.00;65435.88;4888353;29;20068;-50
2021/06/25 12:40:12;;;;;;;46.25;24.42;;;;;;;-145.50;100.00;65435.88;4883015;29;20139;-49
2021/06/25 12:42:39;;;;;;;44.97;24.13;;;;;;;-145.50;100.00;65435.88;4895293;29;20056;-50